createdAt,value
2018-01-23T00:00:30.811Z,2.90
2018-01-23T00:02:58.989Z,2.80
2018-01-23T00:05:27.955Z,2.80
2018-01-23T00:07:56.125Z,2.80
2018-01-23T00:10:24.295Z,2.80
2018-01-23T00:12:52.473Z,2.80
2018-01-23T00:15:20.648Z,2.90
2018-01-23T00:17:48.870Z,2.90
2018-01-23T00:20:17.805Z,2.90
2018-01-23T00:22:45.992Z,2.80
2018-01-23T00:25:14.180Z,2.90
2018-01-23T00:27:42.329Z,2.90
2018-01-23T00:30:10.490Z,2.90
2018-01-23T00:32:38.655Z,2.90
2018-01-23T00:35:06.822Z,2.90
2018-01-23T00:37:35.027Z,3.00
2018-01-23T00:40:03.243Z,3.00
2018-01-23T00:42:32.178Z,3.00
2018-01-23T00:45:00.348Z,2.90
2018-01-23T00:47:28.489Z,3.00
2018-01-23T00:49:57.428Z,3.00
2018-01-23T00:52:25.606Z,2.90
2018-01-23T00:54:53.753Z,2.90
2018-01-23T00:57:21.902Z,2.90
2018-01-23T00:59:50.839Z,2.90
2018-01-23T01:02:18.979Z,2.80
2018-01-23T01:04:47.948Z,2.80
2018-01-23T01:07:16.104Z,2.80
2018-01-23T01:09:44.294Z,2.80
2018-01-23T01:12:12.526Z,2.80
2018-01-23T01:14:40.694Z,2.80
2018-01-23T01:17:08.894Z,2.80
2018-01-23T01:19:37.077Z,2.80
2018-01-23T01:22:05.258Z,2.70
2018-01-23T01:24:33.453Z,2.70
2018-01-23T01:27:02.441Z,2.70
2018-01-23T01:29:31.499Z,2.60
2018-01-23T01:31:59.743Z,2.60
2018-01-23T01:34:27.926Z,2.60
2018-01-23T01:36:56.101Z,2.60
2018-01-23T01:39:24.290Z,2.60
2018-01-23T01:41:52.456Z,2.60
2018-01-23T01:44:20.635Z,2.60
2018-01-23T01:46:48.859Z,2.60
2018-01-23T01:49:17.041Z,2.60
2018-01-23T01:51:45.215Z,2.60
2018-01-23T01:54:13.397Z,2.60
2018-01-23T01:56:42.321Z,2.70
2018-01-23T01:59:10.512Z,2.60
2018-01-23T02:01:38.718Z,2.60
2018-01-23T02:04:06.949Z,2.70
2018-01-23T02:06:35.193Z,2.60
2018-01-23T02:09:04.233Z,2.70
2018-01-23T02:11:32.666Z,2.60
2018-01-23T02:14:01.612Z,2.70
2018-01-23T02:16:29.782Z,2.70
2018-01-23T02:18:57.972Z,2.70
2018-01-23T02:21:26.154Z,2.80
2018-01-23T02:23:54.315Z,2.80
2018-01-23T02:26:22.494Z,2.70
2018-01-23T02:28:51.444Z,2.80
2018-01-23T02:31:19.650Z,2.70
2018-01-23T02:33:47.861Z,2.70
2018-01-23T02:36:16.065Z,2.70
2018-01-23T02:38:44.230Z,2.70
2018-01-23T02:41:13.180Z,2.60
2018-01-23T02:43:41.346Z,2.50
2018-01-23T02:46:09.538Z,2.60
2018-01-23T02:48:37.734Z,2.60
2018-01-23T02:51:05.900Z,2.60
2018-01-23T02:53:34.070Z,2.60
2018-01-23T02:56:02.230Z,2.60
2018-01-23T02:58:30.414Z,2.60
2018-01-23T03:00:58.654Z,2.60
2018-01-23T03:03:26.828Z,2.60
2018-01-23T03:05:54.997Z,2.60
2018-01-23T03:08:23.204Z,2.60
2018-01-23T03:10:52.166Z,2.60
2018-01-23T03:13:20.395Z,2.50
2018-01-23T03:15:48.580Z,2.60
2018-01-23T03:18:17.520Z,2.50
2018-01-23T03:20:45.711Z,2.50
2018-01-23T03:23:14.674Z,2.40
2018-01-23T03:25:42.878Z,2.40
2018-01-23T03:28:11.053Z,2.40
2018-01-23T03:30:39.217Z,2.30
2018-01-23T03:33:07.413Z,2.20
2018-01-23T03:35:35.597Z,2.20
2018-01-23T03:38:03.772Z,2.10
2018-01-23T03:40:31.953Z,2.00
2018-01-23T03:43:00.151Z,2.00
2018-01-23T03:45:29.126Z,1.90
2018-01-23T03:47:58.065Z,1.90
2018-01-23T03:50:26.249Z,1.80
2018-01-23T03:52:54.416Z,1.90
2018-01-23T03:55:22.590Z,1.80
2018-01-23T03:57:50.777Z,1.80
2018-01-23T04:00:19.012Z,1.90
2018-01-23T04:02:48.003Z,1.90
2018-01-23T04:05:16.986Z,1.90
2018-01-23T04:07:45.928Z,1.90
2018-01-23T04:10:14.100Z,1.80
2018-01-23T04:12:42.267Z,1.90
2018-01-23T04:15:10.434Z,1.90
2018-01-23T04:17:38.610Z,1.80
2018-01-23T04:20:06.790Z,1.80
2018-01-23T04:22:34.970Z,1.80
2018-01-23T04:25:03.208Z,1.70
2018-01-23T04:27:32.151Z,1.60
2018-01-23T04:30:00.329Z,1.60
2018-01-23T04:32:28.528Z,1.60
2018-01-23T04:34:56.719Z,1.50
2018-01-23T04:37:25.663Z,1.40
2018-01-23T04:39:53.824Z,1.30
2018-01-23T04:42:22.032Z,1.30
2018-01-23T04:44:50.984Z,1.30
2018-01-23T04:47:19.153Z,1.20
2018-01-23T06:11:45.004Z,1.20
2018-01-23T06:14:13.192Z,0.80
2018-01-23T06:16:42.160Z,0.80
2018-01-23T06:19:10.336Z,0.70
2018-01-23T06:21:38.573Z,0.80
2018-01-23T06:24:06.758Z,0.90
2018-01-23T06:26:34.960Z,0.90
2018-01-23T06:29:03.197Z,0.90
2018-01-23T06:31:31.361Z,0.90
2018-01-23T06:33:59.537Z,0.90
2018-01-23T06:36:27.724Z,0.90
2018-01-23T06:38:55.897Z,0.90
2018-01-23T06:41:24.067Z,0.90
2018-01-23T06:43:52.234Z,0.90
2018-01-23T06:46:20.404Z,0.90
2018-01-23T06:48:48.579Z,1.00
2018-01-23T06:51:16.777Z,1.00
2018-01-23T06:53:44.999Z,1.00
2018-01-23T06:56:13.217Z,1.00
2018-01-23T06:58:41.436Z,1.00
2018-01-23T07:01:09.600Z,1.10
2018-01-23T07:03:37.818Z,1.20
2018-01-23T07:06:06.822Z,1.30
2018-01-23T07:08:35.029Z,1.30
2018-01-23T07:11:03.208Z,1.40
2018-01-23T07:13:31.365Z,1.50
2018-01-23T07:15:59.589Z,1.60
2018-01-23T07:18:27.778Z,1.80
2018-01-23T07:20:56.790Z,2.00
2018-01-23T07:23:24.989Z,1.90
2018-01-23T07:25:53.216Z,2.10
2018-01-23T07:28:22.217Z,2.30
2018-01-23T07:30:51.160Z,2.40
2018-01-23T07:33:19.332Z,2.30
2018-01-23T07:35:47.534Z,2.50
2018-01-23T07:38:15.804Z,2.50
2018-01-23T07:40:44.011Z,2.40
2018-01-23T07:43:12.951Z,2.50
2018-01-23T07:45:41.141Z,2.40
2018-01-23T07:48:09.350Z,2.50
2018-01-23T07:50:38.338Z,2.60
2018-01-23T07:53:07.287Z,2.60
2018-01-23T07:55:35.477Z,2.60
2018-01-23T07:58:03.669Z,2.70
2018-01-23T08:00:31.850Z,2.70
2018-01-23T08:03:00.079Z,2.80
2018-01-23T08:05:28.307Z,2.80
2018-01-23T08:07:57.255Z,2.80
2018-01-23T08:10:25.489Z,2.80
2018-01-23T08:12:54.487Z,2.80
2018-01-23T08:15:23.445Z,2.90
2018-01-23T08:17:51.640Z,2.80
2018-01-23T08:20:20.605Z,3.00
2018-01-23T08:22:48.799Z,2.90
2018-01-23T08:25:16.961Z,3.00
2018-01-23T08:27:45.153Z,3.10
2018-01-23T08:30:14.110Z,3.20
2018-01-23T08:32:42.322Z,3.10
2018-01-23T08:35:11.281Z,3.30
2018-01-23T08:37:39.484Z,3.20
2018-01-23T08:40:07.684Z,3.30
2018-01-23T08:42:35.874Z,3.30
2018-01-23T08:45:04.164Z,3.40
2018-01-23T08:47:32.313Z,3.40
2018-01-23T08:50:01.251Z,3.40
2018-01-23T08:52:29.472Z,3.40
2018-01-23T08:54:58.421Z,3.50
2018-01-23T08:57:26.632Z,3.50
2018-01-23T08:59:55.605Z,3.80
2018-01-23T09:02:23.842Z,3.70
2018-01-23T09:04:52.034Z,3.90
2018-01-23T09:07:20.213Z,4.00
2018-01-23T09:09:49.146Z,4.30
2018-01-23T09:12:18.106Z,4.40
2018-01-23T09:14:46.288Z,4.40
2018-01-23T09:17:14.479Z,4.50
2018-01-23T09:19:42.685Z,4.70
2018-01-23T09:22:10.857Z,5.00
2018-01-23T09:24:39.046Z,5.20
2018-01-23T09:27:07.238Z,5.30
2018-01-23T09:29:36.181Z,5.60
2018-01-23T09:32:05.130Z,5.60
2018-01-23T09:34:33.320Z,5.50
2018-01-23T09:37:01.505Z,5.60
2018-01-23T09:39:29.690Z,5.80
2018-01-23T09:41:58.638Z,5.90
2018-01-23T09:44:26.801Z,5.80
2018-01-23T09:46:55.082Z,6.00
2018-01-23T09:49:23.237Z,6.20
2018-01-23T09:51:51.444Z,6.40
2018-01-23T09:54:19.610Z,6.70
2018-01-23T09:56:47.778Z,7.00
2018-01-23T09:59:15.976Z,7.20
2018-01-23T10:01:44.145Z,7.30
2018-01-23T10:04:12.318Z,7.30
2018-01-23T10:06:40.511Z,7.30
2018-01-23T10:09:08.699Z,7.20
2018-01-23T10:11:36.919Z,7.30
2018-01-23T10:14:05.102Z,7.60
2018-01-23T10:16:33.324Z,7.80
2018-01-23T10:19:01.490Z,8.00
2018-01-23T10:21:29.679Z,8.30
2018-01-23T10:23:58.621Z,8.50
2018-01-23T10:26:26.795Z,8.40
2018-01-23T10:28:54.968Z,8.60
2018-01-23T10:31:23.156Z,8.60
2018-01-23T10:33:51.334Z,8.70
2018-01-23T10:36:19.535Z,8.90
2018-01-23T10:38:47.701Z,9.20
2018-01-23T10:41:15.866Z,9.40
2018-01-23T10:43:44.068Z,9.70
2018-01-23T10:46:13.055Z,10.40
2018-01-23T10:48:41.242Z,10.30
2018-01-23T10:51:10.175Z,11.10
2018-01-23T10:53:38.344Z,11.00
2018-01-23T10:56:06.530Z,11.50
2018-01-23T10:58:34.697Z,12.00
2018-01-23T11:01:06.832Z,12.90
2018-01-23T11:03:35.798Z,14.30
2018-01-23T11:06:03.971Z,14.20
2018-01-23T11:08:32.171Z,15.60
2018-01-23T11:11:01.112Z,21.00
2018-01-23T11:13:29.277Z,20.80
2018-01-23T11:15:57.469Z,23.10
2018-01-23T11:18:25.655Z,25.20
2018-01-23T11:20:53.828Z,26.50
2018-01-23T11:23:22.005Z,27.20
2018-01-23T11:25:50.178Z,26.10
2018-01-23T11:28:18.358Z,26.50
2018-01-23T11:30:46.534Z,26.30
2018-01-23T11:33:14.715Z,26.90
2018-01-23T11:35:42.892Z,27.30
2018-01-23T11:38:11.068Z,27.60
2018-01-23T11:40:39.237Z,28.10
2018-01-23T11:43:07.423Z,28.80
2018-01-23T11:45:35.591Z,29.60
2018-01-23T11:48:03.783Z,30.60
2018-01-23T11:50:32.757Z,30.50
2018-01-23T11:53:00.939Z,30.50
2018-01-23T11:55:29.113Z,31.00
2018-01-23T11:57:57.278Z,31.10
2018-01-23T12:00:25.497Z,31.30
2018-01-23T12:02:53.657Z,32.10
2018-01-23T12:05:22.600Z,32.60
2018-01-23T12:07:50.864Z,32.60
2018-01-23T12:10:19.027Z,32.30
2018-01-23T12:12:47.209Z,31.60
2018-01-23T12:15:15.378Z,31.60
2018-01-23T12:17:43.544Z,31.80
2018-01-23T12:20:11.706Z,32.20
2018-01-23T12:22:39.896Z,33.00
2018-01-23T12:25:08.069Z,33.20
2018-01-23T12:27:36.248Z,33.70
2018-01-23T12:30:04.437Z,32.80
2018-01-23T12:32:33.430Z,31.60
2018-01-23T12:35:01.614Z,31.50
2018-01-23T12:37:29.789Z,31.90
2018-01-23T12:39:57.957Z,32.40
2018-01-23T12:42:26.125Z,33.20
2018-01-23T12:44:54.289Z,32.50
2018-01-23T12:47:22.566Z,31.40
2018-01-23T12:49:50.757Z,29.60
2018-01-23T12:52:18.941Z,30.20
2018-01-23T12:54:47.130Z,29.60
2018-01-23T12:57:15.293Z,28.50
2018-01-23T12:59:43.478Z,28.20
2018-01-23T13:02:11.658Z,29.20
2018-01-23T13:04:39.826Z,30.50
2018-01-23T13:07:07.997Z,31.70
2018-01-23T13:09:36.197Z,31.70
2018-01-23T13:12:05.145Z,25.70
2018-01-23T13:14:33.445Z,25.50
2018-01-23T13:17:03.278Z,20.50
2018-01-23T13:19:32.219Z,19.50
2018-01-23T13:22:00.389Z,19.40
2018-01-23T13:24:28.566Z,21.50
2018-01-23T13:26:56.740Z,24.10
2018-01-23T13:29:24.926Z,25.20
2018-01-23T13:31:53.090Z,26.80
2018-01-23T13:34:21.322Z,27.70
2018-01-23T13:36:50.250Z,25.60
2018-01-23T13:39:18.427Z,25.50
2018-01-23T13:41:46.603Z,25.30
2018-01-23T13:44:14.799Z,26.30
2018-01-23T13:46:42.968Z,24.70
2018-01-23T13:49:11.153Z,21.60
2018-01-23T13:51:39.331Z,18.70
2018-01-23T13:54:08.313Z,16.70
2018-01-23T13:56:36.488Z,16.60
2018-01-23T13:59:04.687Z,15.80
2018-01-23T14:01:32.867Z,14.80
2018-01-23T14:04:01.040Z,14.50
2018-01-23T14:06:29.214Z,15.30
2018-01-23T14:08:57.386Z,16.50
2018-01-23T14:11:25.557Z,17.30
2018-01-23T14:13:53.728Z,17.30
2018-01-23T14:16:21.953Z,16.50
2018-01-23T14:18:50.860Z,15.10
2018-01-23T14:21:19.040Z,15.00
2018-01-23T14:23:47.209Z,15.50
2018-01-23T14:26:15.392Z,17.70
2018-01-23T14:28:43.562Z,18.80
2018-01-23T14:31:11.745Z,17.60
2018-01-23T14:33:39.957Z,16.30
2018-01-23T14:36:08.141Z,15.10
2018-01-23T14:38:37.091Z,13.10
2018-01-23T14:41:05.253Z,13.00
2018-01-23T14:43:33.425Z,12.30
2018-01-23T14:46:01.596Z,11.90
2018-01-23T14:48:29.774Z,11.40
2018-01-23T14:50:57.947Z,11.00
2018-01-23T14:53:26.125Z,10.70
2018-01-23T14:55:54.293Z,10.60
2018-01-23T14:58:22.469Z,10.40
2018-01-23T15:00:50.643Z,10.10
2018-01-23T15:03:18.814Z,10.10
2018-01-23T15:05:46.990Z,10.00
2018-01-23T15:08:15.156Z,9.90
2018-01-23T15:10:43.315Z,9.90
2018-01-23T15:13:12.298Z,10.10
2018-01-23T15:15:41.239Z,10.30
2018-01-23T15:18:09.411Z,10.20
2018-01-23T15:20:37.587Z,10.80
2018-01-23T15:23:05.759Z,11.40
2018-01-23T15:25:33.937Z,11.70
2018-01-23T15:28:02.111Z,11.70
2018-01-23T15:30:30.291Z,11.50
2018-01-23T15:32:58.459Z,11.00
2018-01-23T15:35:26.688Z,10.50
2018-01-23T15:37:55.625Z,9.90
2018-01-23T15:40:23.796Z,9.80
2018-01-23T15:42:52.064Z,9.80
2018-01-23T15:45:20.226Z,9.60
2018-01-23T15:48:27.391Z,9.50
2018-01-23T15:50:56.050Z,9.30
2018-01-23T15:53:24.965Z,9.20
2018-01-23T15:55:53.953Z,9.10
2018-01-23T15:58:22.125Z,9.10
2018-01-23T16:00:50.286Z,9.10
2018-01-23T16:03:18.502Z,9.10
2018-01-23T16:05:47.437Z,8.90
2018-01-23T16:08:16.373Z,8.80
2018-01-23T16:10:44.554Z,8.80
2018-01-23T16:13:12.714Z,8.80
2018-01-23T16:15:40.881Z,8.80
2018-01-23T16:18:09.076Z,8.70
2018-01-23T16:20:37.235Z,8.70
2018-01-23T16:23:05.414Z,8.60
2018-01-23T16:25:33.602Z,8.60
2018-01-23T16:28:01.766Z,8.60
2018-01-23T16:30:29.971Z,8.50
2018-01-23T16:32:58.142Z,8.50
2018-01-23T16:35:26.324Z,8.50
2018-01-23T16:37:54.506Z,8.30
2018-01-23T16:40:22.678Z,8.30
2018-01-23T16:42:51.617Z,8.20
2018-01-23T16:45:19.826Z,8.20
2018-01-23T16:47:47.985Z,8.20
2018-01-23T16:50:16.157Z,8.20
2018-01-23T16:52:44.321Z,8.10
2018-01-23T16:55:12.492Z,8.10
2018-01-23T16:57:40.685Z,8.10
2018-01-23T17:00:08.845Z,8.00
2018-01-23T17:02:37.045Z,8.00
2018-01-23T17:05:05.296Z,7.90
2018-01-23T17:07:33.481Z,7.90
2018-01-23T17:10:01.733Z,8.00
2018-01-23T17:12:29.902Z,8.00
2018-01-23T17:14:58.057Z,7.90
2018-01-23T17:17:26.998Z,7.90
2018-01-23T17:19:55.174Z,7.80
2018-01-23T17:22:23.354Z,7.80
2018-01-23T17:24:51.616Z,7.80
2018-01-23T17:27:19.804Z,7.80
2018-01-23T17:29:47.968Z,7.80
2018-01-23T17:32:16.132Z,7.80
2018-01-23T17:34:44.416Z,7.80
2018-01-23T17:37:12.690Z,7.80
2018-01-23T17:39:40.867Z,7.80
2018-01-23T17:42:09.039Z,7.80
2018-01-23T17:44:37.225Z,7.80
2018-01-23T17:47:05.397Z,7.80
2018-01-23T17:49:33.563Z,7.70
2018-01-23T17:52:01.728Z,7.70
2018-01-23T17:54:29.918Z,7.70
2018-01-23T17:56:58.190Z,7.60
2018-01-23T17:59:26.361Z,7.60
2018-01-23T18:01:54.533Z,7.50
2018-01-23T18:04:22.689Z,7.50
2018-01-23T18:06:50.857Z,7.40
2018-01-23T18:09:19.801Z,7.30
2018-01-23T18:11:47.976Z,7.20
2018-01-23T18:14:16.162Z,7.20
2018-01-23T18:16:44.345Z,7.20
2018-01-23T18:19:12.583Z,7.20
2018-01-23T18:21:40.803Z,7.20
2018-01-23T18:24:08.977Z,7.10
2018-01-23T18:26:37.249Z,7.10
2018-01-23T18:29:05.411Z,7.10
2018-01-23T18:31:33.570Z,7.10
2018-01-23T18:34:01.729Z,7.20
2018-01-23T18:36:29.902Z,7.20
2018-01-23T18:38:58.064Z,7.20
2018-01-23T18:41:26.238Z,7.10
2018-01-23T18:43:54.438Z,7.10
2018-01-23T18:46:22.703Z,7.10
2018-01-23T18:48:50.887Z,7.10
2018-01-23T18:51:19.066Z,7.00
2018-01-23T18:53:47.231Z,7.00
2018-01-23T18:56:15.417Z,7.00
2018-01-23T18:58:43.587Z,7.00
2018-01-23T19:01:11.780Z,6.90
2018-01-23T19:03:39.958Z,6.90
2018-01-23T19:06:08.142Z,6.90
2018-01-23T19:08:36.309Z,6.80
2018-01-23T19:11:04.485Z,6.80
2018-01-23T19:13:32.664Z,6.80
2018-01-23T19:16:00.848Z,6.70
2018-01-23T19:18:29.022Z,6.70
2018-01-23T19:20:57.963Z,6.60
2018-01-23T19:23:26.136Z,6.50
2018-01-23T19:25:54.327Z,6.60
2018-01-23T19:28:22.498Z,6.50
2018-01-23T19:30:50.745Z,6.50
2018-01-23T19:33:18.938Z,6.40
2018-01-23T19:35:47.236Z,6.40
2018-01-23T19:38:15.706Z,6.30
2018-01-23T19:40:44.197Z,6.30
2018-01-23T19:43:13.278Z,6.20
2018-01-23T19:45:41.461Z,6.20
2018-01-23T19:48:09.905Z,6.10
2018-01-23T19:50:38.389Z,6.10
2018-01-23T19:53:07.579Z,6.00
2018-01-23T19:55:36.069Z,6.00
2018-01-23T19:58:04.294Z,6.00
2018-01-23T20:00:32.809Z,6.00
2018-01-23T20:03:01.307Z,6.00
2018-01-23T20:05:29.799Z,5.90
2018-01-23T20:07:58.281Z,5.90
2018-01-23T20:10:26.756Z,5.90
2018-01-23T20:12:55.293Z,5.90
2018-01-23T20:15:23.833Z,5.80
2018-01-23T20:17:52.049Z,5.80
2018-01-23T20:20:20.500Z,5.70
2018-01-23T20:22:48.719Z,5.70
2018-01-23T20:25:16.920Z,5.70
2018-01-23T20:27:45.855Z,5.60
2018-01-23T20:30:14.252Z,5.60
2018-01-23T20:32:43.320Z,5.50
2018-01-23T20:35:11.495Z,5.40
2018-01-23T20:37:39.721Z,5.50
2018-01-23T20:40:08.678Z,5.40
2018-01-23T20:42:36.842Z,5.30
2018-01-23T20:45:05.028Z,5.30
2018-01-23T20:47:33.283Z,5.20
2018-01-23T20:50:01.452Z,5.20
2018-01-23T20:52:29.631Z,5.20
2018-01-23T20:54:57.810Z,5.10
2018-01-23T20:57:25.986Z,5.10
2018-01-23T20:59:54.189Z,5.00
2018-01-23T21:02:22.431Z,4.90
2018-01-23T21:04:50.600Z,4.90
2018-01-23T21:07:18.789Z,4.80
2018-01-23T21:09:46.970Z,4.80
2018-01-23T21:12:15.149Z,4.70
2018-01-23T21:14:43.318Z,4.70
2018-01-23T21:17:11.587Z,4.60
2018-01-23T21:19:39.754Z,4.60
2018-01-23T21:22:07.925Z,4.50
2018-01-23T21:24:36.096Z,4.50
2018-01-23T21:27:04.294Z,4.40
2018-01-23T21:29:32.467Z,4.40
2018-01-23T21:32:00.648Z,4.40
2018-01-23T21:34:28.825Z,4.30
2018-01-23T21:36:56.993Z,4.30
2018-01-23T21:39:25.166Z,4.30
2018-01-23T21:41:53.335Z,4.20
2018-01-23T21:44:21.521Z,4.20
2018-01-23T21:46:49.784Z,4.20
2018-01-23T21:49:17.974Z,4.20
2018-01-23T21:51:46.155Z,4.20
2018-01-23T21:54:14.343Z,4.10
2018-01-23T21:56:42.505Z,4.00
2018-01-23T21:59:10.763Z,4.00
2018-01-23T22:01:38.961Z,4.00
2018-01-23T22:04:07.146Z,3.90
2018-01-23T22:06:35.336Z,3.90
2018-01-23T22:09:04.370Z,3.80
2018-01-23T22:11:32.553Z,3.70
2018-01-23T22:14:00.727Z,3.80
2018-01-23T22:16:28.914Z,3.80
2018-01-23T22:18:57.086Z,3.80
2018-01-23T22:21:25.288Z,3.80
2018-01-23T22:23:53.471Z,3.70
2018-01-23T22:26:21.643Z,3.60
2018-01-23T22:28:49.808Z,3.60
2018-01-23T22:31:18.001Z,3.50
2018-01-23T22:33:46.196Z,3.50
2018-01-23T22:36:14.376Z,3.50
2018-01-23T22:38:42.565Z,3.40
2018-01-23T22:41:10.750Z,3.40
2018-01-23T22:43:38.923Z,3.30
2018-01-23T22:46:07.135Z,3.30
2018-01-23T22:48:35.317Z,3.30
2018-01-23T22:51:03.493Z,3.20
2018-01-23T22:53:31.723Z,3.20
2018-01-23T22:55:59.912Z,3.20
2018-01-23T22:58:28.086Z,3.20
2018-01-23T23:00:56.257Z,3.10
2018-01-23T23:03:24.437Z,3.10
2018-01-23T23:05:52.603Z,3.10
2018-01-23T23:08:20.782Z,3.00
2018-01-23T23:10:48.951Z,3.00
2018-01-23T23:13:17.122Z,3.00
2018-01-23T23:15:45.290Z,3.00
2018-01-23T23:18:13.503Z,2.90
2018-01-23T23:20:41.707Z,2.90
2018-01-23T23:23:10.661Z,2.80
2018-01-23T23:25:38.887Z,2.80
2018-01-23T23:28:07.037Z,2.80
2018-01-23T23:30:35.202Z,2.80
2018-01-23T23:33:03.397Z,2.70
2018-01-23T23:35:32.328Z,2.70
2018-01-23T23:38:00.495Z,2.60
2018-01-23T23:40:28.687Z,2.70
2018-01-23T23:42:56.848Z,2.60
2018-01-23T23:45:25.007Z,2.60
2018-01-23T23:47:53.199Z,2.60
2018-01-23T23:50:21.372Z,2.60
2018-01-23T23:52:49.570Z,2.50
2018-01-23T23:55:17.746Z,2.50
2018-01-23T23:57:45.909Z,2.50
